sensor_id;sensor_type;location;lat;lon;timestamp;pressure;altitude;pressure_sealevel;temperature;humidity
23223;BME280;11780;13.904;100.620;2023-07-31T00:01:04;100646.72;;;31.97;70.22
23223;BME280;11780;13.904;100.620;2023-07-31T00:03:35;100651.78;;;31.95;70.07
23223;BME280;11780;13.904;100.620;2023-07-31T00:06:05;100663.31;;;31.97;70.06
23223;BME280;11780;13.904;100.620;2023-07-31T00:08:36;100662.19;;;31.98;70.12
23223;BME280;11780;13.904;100.620;2023-07-31T00:11:06;100678.78;;;31.98;70.06
23223;BME280;11780;13.904;100.620;2023-07-31T00:13:36;100681.53;;;31.98;70.10
23223;BME280;11780;13.904;100.620;2023-07-31T00:16:07;100682.19;;;31.95;70.26
23223;BME280;11780;13.904;100.620;2023-07-31T00:18:37;100685.31;;;31.94;70.10
23223;BME280;11780;13.904;100.620;2023-07-31T00:21:08;100696.38;;;31.94;70.34
23223;BME280;11780;13.904;100.620;2023-07-31T00:23:38;100697.34;;;31.98;70.33
23223;BME280;11780;13.904;100.620;2023-07-31T00:26:09;100706.44;;;31.98;70.37
23223;BME280;11780;13.904;100.620;2023-07-31T00:28:39;100713.94;;;31.98;70.39
23223;BME280;11780;13.904;100.620;2023-07-31T00:31:09;100717.38;;;31.95;70.55
23223;BME280;11780;13.904;100.620;2023-07-31T00:33:40;100725.84;;;31.89;70.34
23223;BME280;11780;13.904;100.620;2023-07-31T00:36:10;100736.59;;;31.91;70.36
23223;BME280;11780;13.904;100.620;2023-07-31T00:38:42;100740.16;;;31.92;70.55
23223;BME280;11780;13.904;100.620;2023-07-31T00:41:12;100745.19;;;31.89;70.38
23223;BME280;11780;13.904;100.620;2023-07-31T00:43:43;100749.28;;;31.92;70.47
23223;BME280;11780;13.904;100.620;2023-07-31T00:46:13;100751.69;;;31.94;70.66
23223;BME280;11780;13.904;100.620;2023-07-31T00:48:43;100738.03;;;31.88;70.81
23223;BME280;11780;13.904;100.620;2023-07-31T00:51:14;100738.88;;;31.89;71.10
23223;BME280;11780;13.904;100.620;2023-07-31T00:53:45;100739.66;;;31.89;70.72
23223;BME280;11780;13.904;100.620;2023-07-31T00:56:17;100751.56;;;31.90;71.28
23223;BME280;11780;13.904;100.620;2023-07-31T00:58:47;100749.75;;;31.85;70.75
23223;BME280;11780;13.904;100.620;2023-07-31T01:01:17;100760.66;;;31.91;70.90
23223;BME280;11780;13.904;100.620;2023-07-31T01:03:49;100755.94;;;31.91;70.95
23223;BME280;11780;13.904;100.620;2023-07-31T01:11:48;100763.91;;;31.93;71.62
23223;BME280;11780;13.904;100.620;2023-07-31T01:14:21;100767.66;;;31.88;71.34
23223;BME280;11780;13.904;100.620;2023-07-31T01:16:52;100771.06;;;31.94;71.45
23223;BME280;11780;13.904;100.620;2023-07-31T01:19:24;100771.06;;;31.94;71.27
23223;BME280;11780;13.904;100.620;2023-07-31T01:22:16;100766.81;;;31.96;71.21
23223;BME280;11780;13.904;100.620;2023-07-31T01:27:34;100778.72;;;31.97;71.56
23223;BME280;11780;13.904;100.620;2023-07-31T01:30:12;100784.06;;;31.93;71.64
23223;BME280;11780;13.904;100.620;2023-07-31T01:32:48;100783.63;;;31.91;71.76
23223;BME280;11780;13.904;100.620;2023-07-31T01:35:19;100786.53;;;31.95;71.82
23223;BME280;11780;13.904;100.620;2023-07-31T01:37:52;100772.69;;;31.95;71.83
23223;BME280;11780;13.904;100.620;2023-07-31T01:40:24;100781.78;;;31.95;72.30
23223;BME280;11780;13.904;100.620;2023-07-31T01:42:54;100783.59;;;32.00;72.12
23223;BME280;11780;13.904;100.620;2023-07-31T01:45:24;100784.25;;;31.97;71.97
23223;BME280;11780;13.904;100.620;2023-07-31T01:47:55;100780.34;;;31.98;71.69
23223;BME280;11780;13.904;100.620;2023-07-31T01:50:25;100777.56;;;31.98;71.87
23223;BME280;11780;13.904;100.620;2023-07-31T01:52:55;100787.50;;;31.99;71.52
23223;BME280;11780;13.904;100.620;2023-07-31T01:55:25;100784.38;;;32.00;71.72
23223;BME280;11780;13.904;100.620;2023-07-31T01:57:56;100781.63;;;32.00;71.63
23223;BME280;11780;13.904;100.620;2023-07-31T02:00:26;100780.47;;;32.01;71.62
23223;BME280;11780;13.904;100.620;2023-07-31T02:02:56;100788.44;;;32.03;71.28
23223;BME280;11780;13.904;100.620;2023-07-31T02:05:27;100787.94;;;32.01;71.75
23223;BME280;11780;13.904;100.620;2023-07-31T02:07:57;100796.72;;;32.03;71.55
23223;BME280;11780;13.904;100.620;2023-07-31T02:10:30;100793.31;;;32.06;71.59
23223;BME280;11780;13.904;100.620;2023-07-31T02:13:00;100785.34;;;32.04;71.28
23223;BME280;11780;13.904;100.620;2023-07-31T02:15:31;100792.66;;;32.09;71.45
23223;BME280;11780;13.904;100.620;2023-07-31T02:18:02;100790.69;;;32.10;71.21
23223;BME280;11780;13.904;100.620;2023-07-31T02:20:35;100790.53;;;32.06;70.90
23223;BME280;11780;13.904;100.620;2023-07-31T02:23:05;100789.56;;;32.02;71.00
23223;BME280;11780;13.904;100.620;2023-07-31T02:25:35;100799.81;;;32.10;70.71
23223;BME280;11780;13.904;100.620;2023-07-31T02:28:06;100800.63;;;32.11;70.50
23223;BME280;11780;13.904;100.620;2023-07-31T02:30:37;100807.63;;;32.08;70.10
23223;BME280;11780;13.904;100.620;2023-07-31T02:33:08;100810.06;;;32.10;70.20
23223;BME280;11780;13.904;100.620;2023-07-31T02:35:39;100814.31;;;32.07;69.97
23223;BME280;11780;13.904;100.620;2023-07-31T02:38:09;100814.47;;;32.02;69.78
23223;BME280;11780;13.904;100.620;2023-07-31T02:40:41;100820.19;;;32.06;69.48
23223;BME280;11780;13.904;100.620;2023-07-31T02:43:11;100819.84;;;32.07;68.88
23223;BME280;11780;13.904;100.620;2023-07-31T02:45:42;100827.50;;;32.01;68.96
23223;BME280;11780;13.904;100.620;2023-07-31T02:48:12;100835.97;;;32.05;68.58
23223;BME280;11780;13.904;100.620;2023-07-31T02:50:42;100838.75;;;31.96;68.65
23223;BME280;11780;13.904;100.620;2023-07-31T02:53:13;100840.06;;;31.99;68.28
23223;BME280;11780;13.904;100.620;2023-07-31T02:55:43;100848.66;;;32.06;67.66
23223;BME280;11780;13.904;100.620;2023-07-31T02:58:14;100855.81;;;32.07;67.68
23223;BME280;11780;13.904;100.620;2023-07-31T03:00:45;100864.59;;;32.09;67.38
23223;BME280;11780;13.904;100.620;2023-07-31T03:03:15;100861.84;;;32.09;67.36
23223;BME280;11780;13.904;100.620;2023-07-31T03:05:45;100872.41;;;32.07;67.71
23223;BME280;11780;13.904;100.620;2023-07-31T03:08:16;100876.69;;;31.96;67.71
23223;BME280;11780;13.904;100.620;2023-07-31T03:10:49;100876.81;;;32.08;67.64
23223;BME280;11780;13.904;100.620;2023-07-31T03:13:19;100883.13;;;32.09;67.29
23223;BME280;11780;13.904;100.620;2023-07-31T03:15:50;100878.59;;;32.04;67.43
23223;BME280;11780;13.904;100.620;2023-07-31T03:18:20;100876.81;;;31.99;67.18
23223;BME280;11780;13.904;100.620;2023-07-31T03:20:51;100880.22;;;32.05;67.15
23223;BME280;11780;13.904;100.620;2023-07-31T03:23:21;100874.03;;;32.08;67.07
23223;BME280;11780;13.904;100.620;2023-07-31T03:26:02;100883.19;;;32.00;66.98
23223;BME280;11780;13.904;100.620;2023-07-31T03:28:33;100872.13;;;32.00;66.83
23223;BME280;11780;13.904;100.620;2023-07-31T03:31:04;100871.28;;;31.99;66.64
23223;BME280;11780;13.904;100.620;2023-07-31T03:33:34;100880.09;;;32.01;66.33
23223;BME280;11780;13.904;100.620;2023-07-31T03:36:05;100876.97;;;32.03;66.17
23223;BME280;11780;13.904;100.620;2023-07-31T03:38:36;100876.97;;;32.03;65.83
23223;BME280;11780;13.904;100.620;2023-07-31T03:41:07;100872.41;;;32.07;65.22
23223;BME280;11780;13.904;100.620;2023-07-31T03:43:37;100877.31;;;32.01;65.08
23223;BME280;11780;13.904;100.620;2023-07-31T03:46:07;100874.22;;;32.03;64.55
23223;BME280;11780;13.904;100.620;2023-07-31T03:48:38;100885.63;;;32.01;64.44
23223;BME280;11780;13.904;100.620;2023-07-31T03:51:08;100874.22;;;32.03;64.55
23223;BME280;11780;13.904;100.620;2023-07-31T03:53:39;100871.44;;;32.03;64.17
23223;BME280;11780;13.904;100.620;2023-07-31T03:56:09;100874.06;;;31.99;64.06
23223;BME280;11780;13.904;100.620;2023-07-31T03:58:40;100856.19;;;31.97;64.03
23223;BME280;11780;13.904;100.620;2023-07-31T04:01:10;100860.22;;;31.99;64.41
23223;BME280;11780;13.904;100.620;2023-07-31T04:03:41;100861.84;;;32.00;64.16
23223;BME280;11780;13.904;100.620;2023-07-31T04:06:11;100851.44;;;31.97;64.28
23223;BME280;11780;13.904;100.620;2023-07-31T04:08:42;100848.03;;;32.00;64.02
23223;BME280;11780;13.904;100.620;2023-07-31T04:11:12;100857.59;;;32.03;63.73
23223;BME280;11780;13.904;100.620;2023-07-31T04:13:43;100852.06;;;32.03;63.75
23223;BME280;11780;13.904;100.620;2023-07-31T04:16:14;100852.56;;;32.05;63.13
23223;BME280;11780;13.904;100.620;2023-07-31T04:18:44;100852.06;;;32.12;63.32
23223;BME280;11780;13.904;100.620;2023-07-31T04:21:14;100854.69;;;32.08;62.72
23223;BME280;11780;13.904;100.620;2023-07-31T04:23:45;100856.63;;;32.08;62.86
23223;BME280;11780;13.904;100.620;2023-07-31T04:26:15;100857.78;;;32.07;62.73
23223;BME280;11780;13.904;100.620;2023-07-31T04:28:46;100856.63;;;32.08;62.59
23223;BME280;11780;13.904;100.620;2023-07-31T04:31:16;100858.91;;;32.06;63.09
23223;BME280;11780;13.904;100.620;2023-07-31T04:33:47;100855.81;;;32.07;62.82
23223;BME280;11780;13.904;100.620;2023-07-31T04:36:17;100853.22;;;32.02;62.13
23223;BME280;11780;13.904;100.620;2023-07-31T04:38:47;100839.56;;;32.06;61.92
23223;BME280;11780;13.904;100.620;2023-07-31T04:41:18;100834.16;;;32.09;61.97
23223;BME280;11780;13.904;100.620;2023-07-31T04:43:48;100830.91;;;32.07;61.56
23223;BME280;11780;13.904;100.620;2023-07-31T04:46:19;100836.78;;;32.06;61.15
23223;BME280;11780;13.904;100.620;2023-07-31T04:48:51;100825.88;;;32.09;61.30
23223;BME280;11780;13.904;100.620;2023-07-31T04:51:21;100825.72;;;32.06;61.46
23223;BME280;11780;13.904;100.620;2023-07-31T04:53:52;100828.13;;;32.16;61.63
23223;BME280;11780;13.904;100.620;2023-07-31T04:56:22;100815.44;;;32.06;61.26
23223;BME280;11780;13.904;100.620;2023-07-31T04:58:52;100820.69;;;31.99;61.31
23223;BME280;11780;13.904;100.620;2023-07-31T05:01:23;100818.38;;;32.01;61.43
23223;BME280;11780;13.904;100.620;2023-07-31T05:03:53;100814.81;;;32.00;61.47
23223;BME280;11780;13.904;100.620;2023-07-31T05:06:23;100813.16;;;32.08;61.65
23223;BME280;11780;13.904;100.620;2023-07-31T05:08:54;100804.69;;;32.13;61.70
23223;BME280;11780;13.904;100.620;2023-07-31T05:11:24;100812.00;;;32.18;61.94
23223;BME280;11780;13.904;100.620;2023-07-31T05:13:54;100806.94;;;32.20;62.02
23223;BME280;11780;13.904;100.620;2023-07-31T05:16:25;100799.31;;;32.17;62.11
23223;BME280;11780;13.904;100.620;2023-07-31T05:18:57;100799.66;;;32.15;62.01
23223;BME280;11780;13.904;100.620;2023-07-31T05:21:27;100796.38;;;32.22;62.35
23223;BME280;11780;13.904;100.620;2023-07-31T05:23:58;100790.00;;;32.22;62.12
23223;BME280;11780;13.904;100.620;2023-07-31T05:26:28;100788.50;;;32.24;62.16
23223;BME280;11780;13.904;100.620;2023-07-31T05:28:58;100779.06;;;32.25;62.47
23223;BME280;11780;13.904;100.620;2023-07-31T05:31:29;100781.22;;;32.19;62.56
23223;BME280;11780;13.904;100.620;2023-07-31T05:34:03;100776.66;;;32.24;62.45
23223;BME280;11780;13.904;100.620;2023-07-31T05:36:33;100785.94;;;32.19;62.47
23223;BME280;11780;13.904;100.620;2023-07-31T05:39:05;100777.44;;;32.24;62.38
23223;BME280;11780;13.904;100.620;2023-07-31T05:41:38;100774.38;;;32.26;62.22
23223;BME280;11780;13.904;100.620;2023-07-31T05:44:08;100776.66;;;32.24;62.63
23223;BME280;11780;13.904;100.620;2023-07-31T05:46:39;100771.09;;;32.24;62.54
23223;BME280;11780;13.904;100.620;2023-07-31T05:49:10;100769.47;;;32.23;62.26
23223;BME280;11780;13.904;100.620;2023-07-31T05:51:40;100766.91;;;32.17;61.75
23223;BME280;11780;13.904;100.620;2023-07-31T05:54:10;100764.44;;;32.25;61.58
23223;BME280;11780;13.904;100.620;2023-07-31T05:56:41;100757.44;;;32.27;61.45
23223;BME280;11780;13.904;100.620;2023-07-31T05:59:12;100744.44;;;32.28;61.71
23223;BME280;11780;13.904;100.620;2023-07-31T06:01:43;100750.94;;;32.23;61.91
23223;BME280;11780;13.904;100.620;2023-07-31T06:04:13;100742.94;;;32.30;61.93
23223;BME280;11780;13.904;100.620;2023-07-31T06:06:44;100736.59;;;32.30;61.88
23223;BME280;11780;13.904;100.620;2023-07-31T06:09:14;100741.31;;;32.29;61.38
23223;BME280;11780;13.904;100.620;2023-07-31T06:11:45;100742.94;;;32.30;61.48
23223;BME280;11780;13.904;100.620;2023-07-31T06:14:15;100739.03;;;32.31;61.45
23223;BME280;11780;13.904;100.620;2023-07-31T06:16:45;100734.78;;;32.34;61.10
23223;BME280;11780;13.904;100.620;2023-07-31T06:19:16;100738.69;;;32.33;61.43
23223;BME280;11780;13.904;100.620;2023-07-31T06:21:46;100726.81;;;32.32;61.18
23223;BME280;11780;13.904;100.620;2023-07-31T06:24:17;100719.13;;;32.38;60.83
23223;BME280;11780;13.904;100.620;2023-07-31T06:26:50;100725.53;;;32.30;61.55
23223;BME280;11780;13.904;100.620;2023-07-31T06:29:20;100718.16;;;32.34;61.16
23223;BME280;11780;13.904;100.620;2023-07-31T06:31:51;100721.88;;;32.38;61.15
23223;BME280;11780;13.904;100.620;2023-07-31T06:34:21;100710.81;;;32.38;61.24
23223;BME280;11780;13.904;100.620;2023-07-31T06:36:52;100711.66;;;32.39;61.04
23223;BME280;11780;13.904;100.620;2023-07-31T06:39:22;100704.13;;;32.39;61.31
23223;BME280;11780;13.904;100.620;2023-07-31T06:41:52;100696.50;;;32.36;61.48
23223;BME280;11780;13.904;100.620;2023-07-31T06:44:23;100699.09;;;32.41;61.75
23223;BME280;11780;13.904;100.620;2023-07-31T06:46:53;100685.72;;;32.43;61.39
23223;BME280;11780;13.904;100.620;2023-07-31T06:49:23;100692.06;;;32.44;61.63
23223;BME280;11780;13.904;100.620;2023-07-31T06:51:54;100676.28;;;32.44;61.61
23223;BME280;11780;13.904;100.620;2023-07-31T06:54:26;100673.69;;;32.39;62.21
23223;BME280;11780;13.904;100.620;2023-07-31T06:56:56;100661.00;;;32.38;62.22
23223;BME280;11780;13.904;100.620;2023-07-31T06:59:27;100655.47;;;32.38;62.35
23223;BME280;11780;13.904;100.620;2023-07-31T07:01:57;100643.38;;;32.43;62.25
23223;BME280;11780;13.904;100.620;2023-07-31T07:04:30;100645.34;;;32.42;62.18
23223;BME280;11780;13.904;100.620;2023-07-31T07:07:00;100633.91;;;32.44;62.26
23223;BME280;11780;13.904;100.620;2023-07-31T07:09:30;100624.94;;;32.47;62.30
23223;BME280;11780;13.904;100.620;2023-07-31T07:12:00;100629.69;;;32.46;62.06
23223;BME280;11780;13.904;100.620;2023-07-31T07:14:31;100615.22;;;32.41;62.17
23223;BME280;11780;13.904;100.620;2023-07-31T07:17:01;100618.31;;;32.39;62.50
23223;BME280;11780;13.904;100.620;2023-07-31T07:19:31;100612.38;;;32.49;62.51
23223;BME280;11780;13.904;100.620;2023-07-31T07:22:02;100623.44;;;32.49;62.46
23223;BME280;11780;13.904;100.620;2023-07-31T07:24:32;100614.81;;;32.51;62.18
23223;BME280;11780;13.904;100.620;2023-07-31T07:27:03;100600.81;;;32.47;62.10
23223;BME280;11780;13.904;100.620;2023-07-31T07:29:38;100588.59;;;32.48;62.30
23223;BME280;11780;13.904;100.620;2023-07-31T07:32:08;100585.84;;;32.48;62.53
23223;BME280;11780;13.904;100.620;2023-07-31T07:34:39;100590.44;;;32.44;62.13
23223;BME280;11780;13.904;100.620;2023-07-31T07:37:09;100581.78;;;32.46;61.89
23223;BME280;11780;13.904;100.620;2023-07-31T07:39:39;100580.78;;;32.50;61.86
23223;BME280;11780;13.904;100.620;2023-07-31T07:42:10;100574.56;;;32.54;61.52
23223;BME280;11780;13.904;100.620;2023-07-31T07:44:40;100569.38;;;32.52;61.76
23223;BME280;11780;13.904;100.620;2023-07-31T07:47:10;100566.72;;;32.56;61.52
23223;BME280;11780;13.904;100.620;2023-07-31T07:49:41;100564.63;;;32.53;61.56
23223;BME280;11780;13.904;100.620;2023-07-31T07:52:18;100549.16;;;32.52;61.76
23223;BME280;11780;13.904;100.620;2023-07-31T07:54:49;100550.13;;;32.56;61.45
23223;BME280;11780;13.904;100.620;2023-07-31T07:57:19;100553.69;;;32.56;61.42
23223;BME280;11780;13.904;100.620;2023-07-31T07:59:49;100546.09;;;32.53;61.41
23223;BME280;11780;13.904;100.620;2023-07-31T08:02:19;100540.66;;;32.57;61.06
23223;BME280;11780;13.904;100.620;2023-07-31T08:04:51;100545.84;;;32.58;61.28
23223;BME280;11780;13.904;100.620;2023-07-31T08:07:22;100545.06;;;32.58;61.31
23223;BME280;11780;13.904;100.620;2023-07-31T08:09:52;100537.91;;;32.57;61.38
23223;BME280;11780;13.904;100.620;2023-07-31T08:12:22;100539.16;;;32.59;61.27
23223;BME280;11780;13.904;100.620;2023-07-31T08:14:52;100543.91;;;32.59;61.35
23223;BME280;11780;13.904;100.620;2023-07-31T08:17:23;100537.41;;;32.55;61.42
23223;BME280;11780;13.904;100.620;2023-07-31T08:19:53;100537.69;;;32.62;61.11
23223;BME280;11780;13.904;100.620;2023-07-31T08:22:24;100528.75;;;32.56;61.07
23223;BME280;11780;13.904;100.620;2023-07-31T08:24:54;100535.13;;;32.57;61.18
23223;BME280;11780;13.904;100.620;2023-07-31T08:27:25;100532.56;;;32.52;61.28
23223;BME280;11780;13.904;100.620;2023-07-31T08:29:55;100534.19;;;32.53;61.48
23223;BME280;11780;13.904;100.620;2023-07-31T08:32:25;100533.50;;;32.56;60.86
23223;BME280;11780;13.904;100.620;2023-07-31T08:34:56;100517.69;;;32.56;60.86
23223;BME280;11780;13.904;100.620;2023-07-31T08:37:26;100520.13;;;32.58;60.70
23223;BME280;11780;13.904;100.620;2023-07-31T08:39:57;100518.16;;;32.58;61.12
23223;BME280;11780;13.904;100.620;2023-07-31T08:42:28;100523.03;;;32.61;61.00
23223;BME280;11780;13.904;100.620;2023-07-31T08:44:59;100518.63;;;32.60;61.09
23223;BME280;11780;13.904;100.620;2023-07-31T08:47:31;100522.22;;;32.61;61.27
23223;BME280;11780;13.904;100.620;2023-07-31T08:50:02;100507.56;;;32.60;61.01
23223;BME280;11780;13.904;100.620;2023-07-31T08:52:33;100501.91;;;32.57;61.63
23223;BME280;11780;13.904;100.620;2023-07-31T08:55:03;100512.50;;;32.55;61.50
23223;BME280;11780;13.904;100.620;2023-07-31T08:57:36;100505.13;;;32.59;61.68
23223;BME280;11780;13.904;100.620;2023-07-31T09:00:09;100500.75;;;32.58;61.59
23223;BME280;11780;13.904;100.620;2023-07-31T09:02:52;100507.75;;;32.55;61.86
23223;BME280;11780;13.904;100.620;2023-07-31T09:05:26;100501.91;;;32.57;61.84
23223;BME280;11780;13.904;100.620;2023-07-31T09:07:57;100493.59;;;32.57;61.37
23223;BME280;11780;13.904;100.620;2023-07-31T09:10:27;100498.22;;;32.65;61.21
23223;BME280;11780;13.904;100.620;2023-07-31T09:12:57;100487.84;;;32.62;61.50
23223;BME280;11780;13.904;100.620;2023-07-31T09:15:28;100485.88;;;32.62;61.50
23223;BME280;11780;13.904;100.620;2023-07-31T09:18:06;100486.81;;;32.67;61.08
23223;BME280;11780;13.904;100.620;2023-07-31T09:20:37;100483.09;;;32.62;61.33
23223;BME280;11780;13.904;100.620;2023-07-31T09:23:12;100487.50;;;32.63;61.52
23223;BME280;11780;13.904;100.620;2023-07-31T09:25:44;100479.97;;;32.64;61.57
23223;BME280;11780;13.904;100.620;2023-07-31T09:28:14;100478.59;;;32.58;61.65
23223;BME280;11780;13.904;100.620;2023-07-31T09:30:50;100471.91;;;32.59;61.53
23223;BME280;11780;13.904;100.620;2023-07-31T09:33:21;100470.75;;;32.60;61.80
23223;BME280;11780;13.904;100.620;2023-07-31T09:35:51;100474.44;;;32.64;61.58
23223;BME280;11780;13.904;100.620;2023-07-31T09:38:21;100463.94;;;32.57;62.24
23223;BME280;11780;13.904;100.620;2023-07-31T09:40:52;100479.97;;;32.64;62.09
23223;BME280;11780;13.904;100.620;2023-07-31T09:43:22;100484.13;;;32.58;62.24
23223;BME280;11780;13.904;100.620;2023-07-31T09:45:55;100488.38;;;32.55;62.28
23223;BME280;11780;13.904;100.620;2023-07-31T09:48:27;100500.75;;;32.58;62.12
23223;BME280;11780;13.904;100.620;2023-07-31T09:51:04;100499.38;;;32.64;61.98
23223;BME280;11780;13.904;100.620;2023-07-31T09:53:35;100499.72;;;32.62;61.66
23223;BME280;11780;13.904;100.620;2023-07-31T09:56:05;100487.84;;;32.62;61.94
23223;BME280;11780;13.904;100.620;2023-07-31T09:58:36;100498.44;;;32.60;61.70
23223;BME280;11780;13.904;100.620;2023-07-31T10:01:06;100504.09;;;32.63;61.59
23223;BME280;11780;13.904;100.620;2023-07-31T10:03:38;100502.97;;;32.64;61.49
23223;BME280;11780;13.904;100.620;2023-07-31T10:06:09;100510.78;;;32.62;61.48
23223;BME280;11780;13.904;100.620;2023-07-31T10:08:40;100510.25;;;32.69;61.43
23223;BME280;11780;13.904;100.620;2023-07-31T10:11:11;100507.91;;;32.59;61.49
23223;BME280;11780;13.904;100.620;2023-07-31T10:13:44;100507.66;;;32.64;61.35
23223;BME280;11780;13.904;100.620;2023-07-31T10:16:16;100516.69;;;32.61;61.35
23223;BME280;11780;13.904;100.620;2023-07-31T10:18:46;100511.59;;;32.63;61.96
23223;BME280;11780;13.904;100.620;2023-07-31T10:21:18;100513.44;;;32.59;61.69
23223;BME280;11780;13.904;100.620;2023-07-31T10:23:48;100512.06;;;32.65;61.90
23223;BME280;11780;13.904;100.620;2023-07-31T10:26:20;100513.78;;;32.57;62.28
23223;BME280;11780;13.904;100.620;2023-07-31T10:28:53;100517.69;;;32.56;62.55
23223;BME280;11780;13.904;100.620;2023-07-31T10:31:24;100520.94;;;32.58;62.59
23223;BME280;11780;13.904;100.620;2023-07-31T10:33:57;100516.22;;;32.59;62.87
23223;BME280;11780;13.904;100.620;2023-07-31T10:36:29;100522.44;;;32.56;63.01
23223;BME280;11780;13.904;100.620;2023-07-31T10:38:59;100513.91;;;32.61;62.80
23223;BME280;11780;13.904;100.620;2023-07-31T10:41:31;100521.75;;;32.59;62.93
23223;BME280;11780;13.904;100.620;2023-07-31T10:44:01;100518.31;;;32.62;63.02
23223;BME280;11780;13.904;100.620;2023-07-31T10:46:32;100518.44;;;32.65;62.93
23223;BME280;11780;13.904;100.620;2023-07-31T10:49:03;100524.44;;;32.68;63.11
23223;BME280;11780;13.904;100.620;2023-07-31T10:51:35;100529.91;;;32.55;63.24
23223;BME280;11780;13.904;100.620;2023-07-31T10:54:13;100524.28;;;32.64;63.20
23223;BME280;11780;13.904;100.620;2023-07-31T10:56:54;100533.06;;;32.66;63.35
23223;BME280;11780;13.904;100.620;2023-07-31T10:59:34;100527.88;;;32.64;63.72
23223;BME280;11780;13.904;100.620;2023-07-31T11:02:05;100542.06;;;32.63;63.91
23223;BME280;11780;13.904;100.620;2023-07-31T11:05:12;100538.59;;;32.66;64.60
23223;BME280;11780;13.904;100.620;2023-07-31T11:07:49;100533.41;;;32.64;64.67
23223;BME280;11780;13.904;100.620;2023-07-31T11:10:19;100545.53;;;32.60;64.51
23223;BME280;11780;13.904;100.620;2023-07-31T11:12:53;100547.94;;;32.61;64.29
23223;BME280;11780;13.904;100.620;2023-07-31T11:15:26;100553.00;;;32.59;63.85
23223;BME280;11780;13.904;100.620;2023-07-31T11:17:57;100555.31;;;32.57;64.25
23223;BME280;11780;13.904;100.620;2023-07-31T11:20:34;100559.69;;;32.58;64.52
23223;BME280;11780;13.904;100.620;2023-07-31T11:23:09;100558.53;;;32.59;64.22
23223;BME280;11780;13.904;100.620;2023-07-31T11:25:40;100561.78;;;32.61;64.08
23223;BME280;11780;13.904;100.620;2023-07-31T11:28:13;100568.00;;;32.58;64.58
23223;BME280;11780;13.904;100.620;2023-07-31T11:30:45;100562.81;;;32.57;65.07
23223;BME280;11780;13.904;100.620;2023-07-31T11:33:16;100569.97;;;32.58;64.81
23223;BME280;11780;13.904;100.620;2023-07-31T11:35:48;100559.38;;;32.60;64.94
23223;BME280;11780;13.904;100.620;2023-07-31T11:38:28;100568.81;;;32.59;64.95
23223;BME280;11780;13.904;100.620;2023-07-31T11:41:02;100574.38;;;32.59;64.93
23223;BME280;11780;13.904;100.620;2023-07-31T11:43:32;100583.69;;;32.54;65.17
23223;BME280;11780;13.904;100.620;2023-07-31T11:46:03;100584.28;;;32.60;65.12
23223;BME280;11780;13.904;100.620;2023-07-31T11:48:36;100591.28;;;32.57;65.36
23223;BME280;11780;13.904;100.620;2023-07-31T11:51:10;100587.25;;;32.55;65.38
23223;BME280;11780;13.904;100.620;2023-07-31T13:41:39;100706.03;;;31.61;70.51
23223;BME280;11780;13.904;100.620;2023-07-31T13:44:10;100723.28;;;31.67;70.54
23223;BME280;11780;13.904;100.620;2023-07-31T13:46:41;100726.38;;;31.74;70.03
23223;BME280;11780;13.904;100.620;2023-07-31T13:49:11;100725.72;;;31.77;70.46
23223;BME280;11780;13.904;100.620;2023-07-31T13:51:41;100729.59;;;31.85;70.18
23223;BME280;11780;13.904;100.620;2023-07-31T13:54:12;100732.03;;;31.86;69.80
23223;BME280;11780;13.904;100.620;2023-07-31T13:56:43;100732.00;;;31.95;70.00
23223;BME280;11780;13.904;100.620;2023-07-31T13:59:14;100737.69;;;31.99;69.76
23223;BME280;11780;13.904;100.620;2023-07-31T14:01:46;100734.72;;;32.04;69.65
23223;BME280;11780;13.904;100.620;2023-07-31T14:04:17;100739.91;;;32.14;69.61
23223;BME280;11780;13.904;100.620;2023-07-31T14:06:48;100750.81;;;32.11;69.46
23223;BME280;11780;13.904;100.620;2023-07-31T14:09:20;100745.91;;;32.16;69.30
23223;BME280;11780;13.904;100.620;2023-07-31T14:11:50;100745.44;;;32.14;69.07
23223;BME280;11780;13.904;100.620;2023-07-31T14:14:21;100747.41;;;32.05;69.46
23223;BME280;11780;13.904;100.620;2023-07-31T14:16:51;100756.84;;;32.04;69.35
23223;BME280;11780;13.904;100.620;2023-07-31T14:19:22;100753.91;;;32.09;69.60
23223;BME280;11780;13.904;100.620;2023-07-31T14:21:53;100763.19;;;32.13;69.42
23223;BME280;11780;13.904;100.620;2023-07-31T14:24:38;100775.41;;;32.12;69.25
23223;BME280;11780;13.904;100.620;2023-07-31T14:27:08;100772.94;;;32.11;69.22
23223;BME280;11780;13.904;100.620;2023-07-31T14:29:39;100777.19;;;32.08;69.15
23223;BME280;11780;13.904;100.620;2023-07-31T14:32:09;100785.19;;;32.01;69.73
23223;BME280;11780;13.904;100.620;2023-07-31T14:34:39;100778.81;;;32.09;69.78
23223;BME280;11780;13.904;100.620;2023-07-31T14:37:10;100771.84;;;32.03;69.33
23223;BME280;11780;13.904;100.620;2023-07-31T14:39:40;100789.41;;;32.07;69.11
23223;BME280;11780;13.904;100.620;2023-07-31T14:42:10;100776.72;;;32.06;69.31
23223;BME280;11780;13.904;100.620;2023-07-31T14:44:41;100781.75;;;32.04;68.94
23223;BME280;11780;13.904;100.620;2023-07-31T14:47:11;100784.03;;;32.02;69.12